Hurghada, Egypti

22. huhtikuuta 2018 klo 10:45 (EET) (GMT +0200)
Hurghada | | Change Station

Kork 46 ft 27.15 °N, 33.72 °E | Updated 45 minutes ago

Selkeää
Selkeää
81 °F
Tuntuu kuin 81 °F
N
21
Tuuli Suunnaltaan vaihteleva Tuuli ilmansuunnasta Pohjoinen

Tänään
Korkea -- | Matala -- °F
--% Sateen mahd.
Eilen
Korkea -- | Matala -- °F
Precip. -- tuumaa
Ilmanpaine 29.80 tuumaa
Näkyvyys 3.7 mailia
Pilviä
Kastepiste 50 °F
Ilmankosteus 34%
Sademäärä 0.00 tuumaa
Lumensyvyys Ei saatavilla
5:14 AM 6:14 PM
Kasvava sirppi, 44% visible
METAR HEGN 220800Z 36018KT 6000 NSC 27/10 Q1009 NOSIG
Ilmanpaine 29.80 tuumaa
Näkyvyys 3.7 mailia
Pilviä
Kastepiste 50 °F
Ilmankosteus 34%
Sademäärä 0.00 tuumaa
Lumensyvyys Ei saatavilla
5:14 AM 6:14 PM
Kasvava sirppi, 44% visible
METAR HEGN 220800Z 36018KT 6000 NSC 27/10 Q1009 NOSIG

Get Severe Weather Alerts

Thanks for signing up!

Be on the lookout for a verification email in your inbox.

You'll start receiving the daily forecast at 6 AM.

×

10-Day Weather Forecast

No radar image for this location.
×

Almanac

Tähtitiede

Apr. 22, 2018 Nousuaika Laskuaika
Valoisa aika
Porvarillinen hämärä
Nauttinen hämärä
Astronominen hämärä
Kuu
Näkyvän valon pituus
Päivän pituus
Tomorrow will be .
, % of the Moon is Illuminated

Tämän päivän ennätykset

Country Highs Country Lows

Community

WunderPhotos

Category 6

Welcome to Category 6. This is the collective home for Weather Underground's featured writeups by Dr. Jeff Masters (right), Bob Henson (left), Chris Burt, and other regular contributors.

Nearby

Ilmanlaatu

  Ilmanlaatu AQ Index Pollutant
Not available.

Lumensyvyys

Station Depth Korkeus

Maanjäristysaktiivisuus

Paikkakunta Distance Mag. Time & Date
Minimum magnitude displayed is 2.5.

Coastal Water Temperatures

Paikka Lämpötila

Stations

Lähimmät sääasemat

Aseman sijainti Lämpötila Tuulen hyytävyys Kastepiste Ilmankosteus Tuuli Precip. Kork Päivitetty Tyyppi